Etusivu
METAR-TAF:

METAR-TAF

Lentoasemat :

Omak Airport

Omak, Washington, Yhdysvallat

Leveyspiiri: 48-27-51N, Pituuspiiri: 119-31-05W, korkeus merenpinnasta: 397 m

Tämänhetkinen sää

Tämä raportti tehtiin 21 minuuttia sitten, kello 10.53 UTC
Tuuli 10 kn pohjoisesta
Lämpötila -1°C
Kosteus 74%
Ilmanpaine 1021 hPa
Näkyvyys: 16.1 km
selkeää

METAR: KOMK 211053Z AUTO 35010KT 10SM CLR M01/M05 A3016 RMK AO2 SLP224 T10111050

Aika: 03:14 (11:14 UTC)


TAF: puuttuu

Säähavainnot ja -ennusteet yli 4000 lentoasemalta (METAR- ja TAF-raportit).

Käytössä olevat sääasemat on merkitty karttaan keltaisilla ja punaisilla pisteillä.

Aseta hiiri pisteen päälle nähdäksesi sääaseman nimen.

Klikkaa sitten nähdäksesi säähavainnot ja -ennusteet.

Kartan vaihtaminen: klikkaa mustalla rastilla varustettuja vihreitä pisteitä, niin voit zoomata sisään; viivalla varustettua vihreää pistettä, niin voit zoomata ulos tai vihreitä nuolia, niin pääset viereisille kartoille.


METAR-TAF: